Aérodrome :
LOGIN :

S'inscrire | Disclaimer

   EN    FR    IT 

 










Légende :    VFR   VFR Marginal   IFR   IFR Intensif   IFR Très Intensif
Visi : 
Plafond : 
>= 8 km
>= 3000ft
5 à 8 km
1000 à 3000 ft
1500m à 5 km
500 à 1000 ft
800 à 1500m
200 à 500 ft
< 800m
< 200 ft
Symboles :   Orages  Brouillard  Fortes neiges  Fortes précipitations  Vent > 20 kt
SIGMETs :   Divers  Orages  Givrage  Turbulence  Onde Orograph.  Cendres Volcan.






- Altitude de l'aérodrome : 74 ft
- Code IATA : MRS


LFML - Marseille / Marignane

DERNIER METAR :
  • 092100Z AUTO 32027KT 9999 FEW043 10/03 Q1017 BECMG 31020G35KT

METARs EXPIRÉS :
  • 092030Z AUTO 31024KT 9999 FEW046 11/03 Q1017 BECMG 31020G35KT
  • 092000Z AUTO 31020KT 9999 FEW022 11/03 Q1017 BECMG 32032KT
  • 091930Z AUTO 30021KT CAVOK 10/04 Q1017 BECMG 32032KT
  • 091900Z AUTO 29022KT CAVOK 10/06 Q1016 BECMG 32032KT
  • 091830Z AUTO 29020KT 9999 NSC 10/06 Q1016 BECMG 32032KT

TAF TAF LFML
Valide du 09 à 21h jusqu'au 11 à 03h UTC


092000Z 0921/1103 31020G35KT CAVOK TX10/1014Z TN04/1024Z
TEMPO 1000/1009 34032G45KT
BECMG 1010/1014 32010KT
BECMG 1017/1019 VRB02KT
ATIS : +33 4 42 31 15 15



MET'MAP, la Météo Aéronautique d'un coup d'oeil ! - Copyright ORBIFLY Décembre 2007 - Disclaimer

ORBIFLY MET'MAP TEAM :

Programmation & Développement : Alexandra Zaïnal
Sur une idée originale de : Baudouin d'Aumeries
Assistance à la programmation : Marc-Olivier Méhu
Soutien technique & logistique : Manuel Goepfert

Contact : metmap@orbifly.com




SOURCES & CREDITS :

   NOAA